テルアビブ / ベン・グリオン の空港の天気 - METARとTAF

ベン・グリオン国際空港(テルアビブ) ( LLBG / TLV ) - イスラエル ロード / テルアビブ
飛行場実況気象(Metar)
観測時間04/25 19:20 IDT (04/25 16:20 UTC)
風向・風速北北西 4m/s
視程10km以上
天気現象
なし
気温19℃
湿度60%
気圧1016hPa
METARLLBG 251620Z 34008KT CAVOK 19/11 Q1016 NOSIG
過去の天気等 Google飛行場航空写真 Wunderground天気予報

過去48時間のMETAR

飛行場予報(TAF)
発表時間: 4/25 14:02 IDT (4/25 11:02 UTC)
予報対象時間: 25日15時 IDT ~ 26日15時 IDT
風向・風速北西 8m/s
視程10km以上
なし
25日19時 IDT ~ 25日21時 IDT に徐々に
風向・風速不定 2m/s
25日22時 IDT ~ 25日24時 IDT に徐々に
風向・風速南南東 2m/s
26日2時 IDT から 確率 30% で
視程5,000m
天気現象もや
全天の4割程度の雲 雲底高度 300m
26日10時 IDT ~ 26日12時 IDT に徐々に
風向・風速北北西 7m/s
TAF LLBG 251102Z 2512/2612 32015KT CAVOK
BECMG 2516/2518 VRB03KT
BECMG 2519/2521 15004KT
PROB30 2523/2605 5000 BR SCT010
BECMG 2607/2609 33013KT TX23/2512Z TN15/2604Z